Meteo Giornale » Osservazioni meteo Argentina » Neuquen Aerodrome
ore: 00:00 - Osservazioni Meteo Neuquen Aerodrome
Lat. 38° 57' S Lon. 68° 8' W Alt. 270 metri s.l.m.
10 °C
Sereno
Temp. 24 Ore
5 °C
16 °C
Nord
5.5 Km/h
Dew point 0 °C
Umidità 49 %
Visibilità 10 Km
Il sole sorge alle ore 07:54
Il sole tramonta alle ore 19:10
| Data e Ora | Cielo e Fenomeni | T °C | DP °C | Um. % | Pres. hPa | Vis. km | Vento km/h | |
|---|---|---|---|---|---|---|---|---|
| Oggi h: 00:00 | Sereno | 10 | 0 | 49 | 1020 | 10 | N 5.5 | |
| Ieri h: 23:00 | Sereno | 7 | 2 | 70 | 1020 | 8 | N 5.5 | |
| Ieri h: 22:00 | Sereno | 8 | 3 | 70 | 1020 | 7 | N 3.7 | |
| Ieri h: 21:00 | Sereno | 9 | 3 | 66 | 1019 | 10 | N 3.7 | |
| Ieri h: 20:00 | Sereno | 12 | 2 | 50 | 1018 | 10 | N 1.8 | |
| Ieri h: 19:00 | Sereno | 15 | 2 | 41 | 1018 | 10 | N 1.8 | |
| Ieri h: 18:00 | Sereno | 16 | 2 | 38 | 1017 | 10 | N 3.7 | |
| Ieri h: 17:00 | Sereno | 15 | 2 | 41 | 1017 | 10 | S/SE 7.4 | |
| Ieri h: 16:00 | Sereno | 15 | 2 | 41 | 1017 | 10 | N 5.5 | |
| Ieri h: 15:00 | Sereno | 13 | 2 | 47 | 1018 | 10 | N 3.7 | |
| Ieri h: 14:00 | Sereno | 12 | 2 | 50 | 1019 | 10 | SO 7.4 | |
| Ieri h: 13:00 | Sereno | 12 | 1 | 46 | 1019 | 10 | O/SO 11.1 | |
| Ieri h: 12:00 | Sereno | 11 | 2 | 53 | 1019 | 10 | O 13 | |
| Ieri h: 11:00 | Sereno | 10 | 2 | 57 | 1019 | 10 | O/NO 7.4 | |
| Ieri h: 10:00 | Sereno | 9 | 2 | 61 | 1019 | 10 | O 7.4 | |
| Ieri h: 09:00 | Sereno | 8 | 2 | 65 | 1018 | 10 | NO 9.3 | |
| Ieri h: 08:00 | Sereno | 5 | 1 | 75 | 1017 | 10 | N 5.5 | |
| Ieri h: 07:00 | Sereno | 8 | 2 | 65 | 1016 | 10 | O/NO 7.4 | |
| Ieri h: 06:00 | Sereno | 9 | 2 | 61 | 1015 | 10 | N 5.5 | |
| Ieri h: 05:00 | Sereno | 8 | 1 | 61 | 1014 | 10 | N 3.7 | |
| Ieri h: 04:00 | Sereno | 10 | 1 | 53 | 1014 | 10 | O/SO 9.3 | |
| Ieri h: 03:00 | Sereno | 11 | 1 | 50 | 1013 | 10 | O 13 | |
| Ieri h: 02:00 | Sereno | 13 | 0 | 40 | 1013 | 10 | O/SO 16.7 | |
| Ieri h: 01:00 | Sereno | 15 | -2 | 30 | 1013 | 10 | O/NO 9.3 | |



